createdAt,value
2022-09-27T00:02:26.761Z,9.00
2022-09-27T00:04:53.473Z,8.80
2022-09-27T00:07:20.158Z,5.68
2022-09-27T00:09:46.806Z,5.07
2022-09-27T00:12:13.542Z,5.68
2022-09-27T00:14:40.252Z,6.22
2022-09-27T00:17:06.995Z,7.03
2022-09-27T00:19:34.086Z,8.55
2022-09-27T00:22:01.392Z,7.47
2022-09-27T00:24:28.207Z,10.80
2022-09-27T00:26:54.903Z,6.00
2022-09-27T00:29:21.606Z,6.10
2022-09-27T00:31:48.717Z,10.48
2022-09-27T00:34:24.785Z,8.32
2022-09-27T00:36:52.307Z,11.20
2022-09-27T00:39:19.391Z,13.20
2022-09-27T00:41:46.615Z,11.52
2022-09-27T00:44:25.925Z,13.50
2022-09-27T00:47:01.579Z,13.35
2022-09-27T00:49:58.369Z,13.13
2022-09-27T00:52:52.587Z,13.05
2022-09-27T00:55:27.077Z,15.77
2022-09-27T00:57:53.932Z,11.05
2022-09-27T01:00:21.717Z,18.98
2022-09-27T01:02:52.735Z,13.98
2022-09-27T01:05:23.199Z,15.80
2022-09-27T01:07:50.232Z,21.55
2022-09-27T01:10:18.755Z,15.30
2022-09-27T01:12:55.108Z,15.45
2022-09-27T01:15:40.250Z,13.63
2022-09-27T01:18:35.532Z,13.98
2022-09-27T01:21:30.691Z,20.20
2022-09-27T01:23:57.784Z,14.45
2022-09-27T01:26:27.794Z,18.25
2022-09-27T01:29:12.816Z,21.10
2022-09-27T01:31:51.073Z,16.02
2022-09-27T01:34:41.230Z,15.68
2022-09-27T01:37:24.310Z,12.23
2022-09-27T01:40:36.425Z,15.43
2022-09-27T01:43:45.904Z,15.00
2022-09-27T01:46:20.942Z,21.00
2022-09-27T01:49:22.471Z,15.27
2022-09-27T01:51:55.976Z,17.83
2022-09-27T01:54:30.258Z,14.38
2022-09-27T01:57:36.959Z,18.40
2022-09-27T02:00:09.760Z,18.20
2022-09-27T02:02:59.314Z,17.77
2022-09-27T02:05:45.672Z,19.92
2022-09-27T02:08:36.379Z,22.45
2022-09-27T02:11:13.871Z,15.20
2022-09-27T02:14:07.136Z,19.45
2022-09-27T02:16:51.587Z,16.95
2022-09-27T02:19:45.872Z,17.17
2022-09-27T02:22:21.879Z,19.73
2022-09-27T02:24:57.395Z,17.08
2022-09-27T02:27:38.584Z,19.25
2022-09-27T02:30:15.290Z,16.17
2022-09-27T02:32:44.908Z,14.55
2022-09-27T02:35:24.521Z,14.50
2022-09-27T02:37:51.714Z,11.90
2022-09-27T02:40:20.003Z,10.68
2022-09-27T02:42:47.116Z,12.32
2022-09-27T02:45:17.265Z,13.35
2022-09-27T02:48:11.447Z,8.80
2022-09-27T02:50:41.116Z,8.52
2022-09-27T02:53:45.957Z,9.25
2022-09-27T02:56:57.524Z,7.82
2022-09-27T02:59:45.732Z,11.73
2022-09-27T03:02:38.734Z,9.63
2022-09-27T03:05:39.646Z,11.05
2022-09-27T03:08:07.506Z,25.60
2022-09-27T03:10:34.292Z,19.38
2022-09-27T03:13:01.012Z,16.17
2022-09-27T03:15:27.892Z,13.00
2022-09-27T03:18:00.677Z,16.67
2022-09-27T03:20:42.403Z,12.20
2022-09-27T03:23:11.170Z,12.10
2022-09-27T03:25:37.921Z,15.90
2022-09-27T03:28:04.909Z,18.00
2022-09-27T03:30:32.240Z,19.83
2022-09-27T03:32:58.987Z,21.10
2022-09-27T03:35:45.645Z,17.08
2022-09-27T03:38:13.684Z,18.30
2022-09-27T03:40:40.833Z,17.50
2022-09-27T03:43:08.131Z,20.80
2022-09-27T03:45:34.849Z,23.42
2022-09-27T03:48:05.773Z,17.50
2022-09-27T03:50:32.771Z,17.52
2022-09-27T03:52:59.500Z,15.18
2022-09-27T03:55:26.323Z,11.10
2022-09-27T03:57:53.408Z,9.07
2022-09-27T04:00:21.248Z,10.93
2022-09-27T04:02:48.644Z,12.40
2022-09-27T04:05:25.722Z,6.63
2022-09-27T04:08:08.053Z,5.72
2022-09-27T04:10:36.629Z,10.07
2022-09-27T04:13:04.005Z,20.05
2022-09-27T04:15:35.359Z,14.48
2022-09-27T04:21:06.036Z,19.13
2022-09-27T04:23:35.054Z,17.05
2022-09-27T04:26:02.745Z,16.77
2022-09-27T04:28:54.417Z,16.95
2022-09-27T04:31:21.911Z,15.15
2022-09-27T04:34:08.938Z,19.08
2022-09-27T04:36:36.587Z,18.33
2022-09-27T04:39:26.405Z,20.38
2022-09-27T04:41:54.705Z,23.17
2022-09-27T04:44:21.680Z,21.55
2022-09-27T04:46:50.295Z,21.38
2022-09-27T04:49:17.923Z,23.73
2022-09-27T04:51:45.029Z,23.52
2022-09-27T04:54:11.688Z,22.10
2022-09-27T04:56:48.707Z,19.02
2022-09-27T04:59:15.739Z,17.65
2022-09-27T05:01:42.818Z,20.35
2022-09-27T05:04:28.539Z,19.58
2022-09-27T05:06:57.673Z,16.85
2022-09-27T05:09:35.780Z,15.13
2022-09-27T05:12:05.194Z,17.70
2022-09-27T05:14:56.532Z,14.38
2022-09-27T05:17:42.055Z,13.70
2022-09-27T05:20:38.832Z,10.57
2022-09-27T05:23:23.159Z,12.80
2022-09-27T05:25:49.864Z,12.95
2022-09-27T05:28:16.548Z,15.18
2022-09-27T05:30:43.706Z,14.75
2022-09-27T05:33:16.533Z,13.57
2022-09-27T05:35:45.730Z,17.58
2022-09-27T05:38:12.631Z,16.40
2022-09-27T05:40:44.254Z,20.33
2022-09-27T05:43:11.555Z,24.25
2022-09-27T05:45:38.410Z,16.33
2022-09-27T05:48:06.496Z,12.32
2022-09-27T05:50:38.526Z,14.48
2022-09-27T05:53:05.501Z,20.35
2022-09-27T05:55:32.365Z,24.05
2022-09-27T05:58:02.164Z,18.70
2022-09-27T06:00:38.923Z,16.40
2022-09-27T06:03:20.554Z,12.27
2022-09-27T06:06:25.648Z,14.05
2022-09-27T06:08:56.548Z,16.10
2022-09-27T06:11:27.471Z,17.98
2022-09-27T06:13:54.453Z,22.25
2022-09-27T06:16:21.748Z,15.80
2022-09-27T06:18:48.501Z,20.35
2022-09-27T06:21:16.317Z,22.38
2022-09-27T06:23:54.074Z,20.92
2022-09-27T06:26:27.219Z,24.90
2022-09-27T06:29:22.948Z,18.45
2022-09-27T06:31:59.092Z,28.63
2022-09-27T06:34:37.186Z,29.25
2022-09-27T06:37:04.294Z,23.23
2022-09-27T06:39:33.174Z,19.42
2022-09-27T06:42:18.584Z,17.75
2022-09-27T06:45:04.456Z,24.08
2022-09-27T06:47:49.871Z,19.55
2022-09-27T06:50:24.503Z,15.40
2022-09-27T06:52:51.356Z,17.63
2022-09-27T06:55:19.150Z,19.08
2022-09-27T06:58:04.397Z,14.65
2022-09-27T07:00:31.672Z,18.83
2022-09-27T07:03:14.082Z,17.45
2022-09-27T07:06:01.431Z,15.77
2022-09-27T07:08:39.974Z,15.10
2022-09-27T07:11:07.858Z,16.42
2022-09-27T07:13:40.168Z,12.85
2022-09-27T07:16:07.721Z,11.23
2022-09-27T07:18:34.482Z,12.38
2022-09-27T07:21:01.687Z,14.43
2022-09-27T07:23:29.382Z,16.55
2022-09-27T07:26:04.150Z,16.13
2022-09-27T07:28:31.647Z,18.80
2022-09-27T07:30:58.919Z,18.17
2022-09-27T07:33:26.121Z,18.65
2022-09-27T07:35:52.922Z,19.13
2022-09-27T07:38:20.306Z,15.18
2022-09-27T07:40:47.080Z,22.05
2022-09-27T07:43:13.957Z,22.67
2022-09-27T07:45:41.753Z,20.65
2022-09-27T07:48:15.502Z,22.15
2022-09-27T07:50:59.988Z,18.77
2022-09-27T07:53:45.178Z,18.10
2022-09-27T07:56:35.630Z,16.63
2022-09-27T07:59:04.134Z,24.42
2022-09-27T08:01:30.900Z,26.00
2022-09-27T08:03:58.534Z,22.13
2022-09-27T08:06:25.868Z,23.77
2022-09-27T08:08:54.751Z,25.45
2022-09-27T08:11:22.676Z,22.50
2022-09-27T08:13:52.510Z,23.38
2022-09-27T08:16:23.967Z,28.15
2022-09-27T08:19:09.950Z,26.42
2022-09-27T08:21:44.321Z,25.38
2022-09-27T08:24:15.234Z,28.17
2022-09-27T08:27:02.128Z,31.88
2022-09-27T08:29:46.042Z,30.77
2022-09-27T08:32:13.125Z,29.40
2022-09-27T08:34:40.112Z,32.30
2022-09-27T08:37:07.245Z,48.58
2022-09-27T08:39:34.186Z,41.88
2022-09-27T08:42:19.023Z,38.50
2022-09-27T08:45:19.215Z,38.03
2022-09-27T08:47:51.387Z,38.03
2022-09-27T08:50:27.110Z,35.88
2022-09-27T08:53:45.003Z,39.45
2022-09-27T08:56:14.682Z,33.97
2022-09-27T08:59:21.056Z,27.92
2022-09-27T09:01:49.954Z,37.67
2022-09-27T09:04:41.395Z,38.38
2022-09-27T09:07:37.592Z,39.28
2022-09-27T09:10:43.760Z,41.45
2022-09-27T09:13:19.613Z,40.10
2022-09-27T09:15:58.930Z,28.25
2022-09-27T09:18:40.268Z,33.95
2022-09-27T09:21:50.374Z,34.47
2022-09-27T09:24:35.808Z,28.77
2022-09-27T09:30:05.368Z,27.73
2022-09-27T09:32:39.274Z,33.67
2022-09-27T09:35:22.566Z,30.05
2022-09-27T09:37:53.621Z,26.27
2022-09-27T09:40:32.403Z,23.73
2022-09-27T09:43:25.215Z,34.60
2022-09-27T09:46:30.978Z,29.88
2022-09-27T09:49:21.429Z,31.42
2022-09-27T09:51:56.635Z,22.17
2022-09-27T09:54:37.604Z,29.70
2022-09-27T09:57:37.568Z,30.52
2022-09-27T10:00:14.420Z,32.83
2022-09-27T10:02:46.989Z,26.52
2022-09-27T10:05:24.052Z,22.17
2022-09-27T10:08:00.938Z,23.65
2022-09-27T10:10:29.080Z,26.02
2022-09-27T10:12:58.808Z,19.70
2022-09-27T10:15:31.488Z,22.05
2022-09-27T10:17:59.974Z,21.10
2022-09-27T10:20:37.037Z,23.80
2022-09-27T10:23:21.014Z,23.52
2022-09-27T10:26:09.096Z,23.23
2022-09-27T10:28:48.899Z,23.67
2022-09-27T10:31:21.376Z,22.52
2022-09-27T10:34:02.061Z,24.75
2022-09-27T10:36:35.358Z,23.63
2022-09-27T10:39:14.230Z,22.98
2022-09-27T10:41:45.536Z,28.23
2022-09-27T10:44:32.613Z,23.10
2022-09-27T10:47:22.632Z,12.82
2022-09-27T10:50:45.939Z,11.30
2022-09-27T10:53:22.177Z,12.95
2022-09-27T10:55:59.298Z,11.43
2022-09-27T10:58:29.105Z,11.80
2022-09-27T11:01:03.715Z,14.50
2022-09-27T11:03:45.850Z,15.18
2022-09-27T11:06:26.972Z,22.77
2022-09-27T11:08:55.997Z,22.75
2022-09-27T11:11:28.356Z,32.45
2022-09-27T11:14:17.721Z,27.88
2022-09-27T11:17:43.926Z,32.17
2022-09-27T11:20:19.200Z,32.72
2022-09-27T11:23:04.160Z,31.55
2022-09-27T11:25:51.006Z,25.38
2022-09-27T11:29:11.833Z,27.35
2022-09-27T11:32:22.980Z,23.52
2022-09-27T11:35:19.074Z,19.35
2022-09-27T11:38:29.864Z,24.33
2022-09-27T11:41:20.351Z,19.13
2022-09-27T11:43:59.940Z,21.05
2022-09-27T11:46:41.945Z,17.83
2022-09-27T11:49:35.053Z,16.52
2022-09-27T11:52:18.976Z,15.40
2022-09-27T11:54:58.456Z,14.07
2022-09-27T11:57:34.396Z,17.27
2022-09-27T12:00:10.908Z,17.42
2022-09-27T12:03:18.558Z,18.85
2022-09-27T12:05:57.461Z,21.70
2022-09-27T12:08:47.921Z,19.90
2022-09-27T12:11:33.731Z,17.42
2022-09-27T12:14:39.655Z,20.88
2022-09-27T12:17:23.088Z,15.00
2022-09-27T12:20:06.563Z,15.70
2022-09-27T12:22:59.251Z,15.50
2022-09-27T12:25:53.277Z,14.20
2022-09-27T12:28:47.172Z,13.57
2022-09-27T12:31:32.052Z,12.88
2022-09-27T12:34:17.548Z,11.38
2022-09-27T12:36:52.800Z,13.18
2022-09-27T12:39:28.527Z,15.30
2022-09-27T12:42:17.094Z,15.38
2022-09-27T12:44:50.506Z,16.00
2022-09-27T12:47:23.048Z,15.93
2022-09-27T12:49:49.763Z,15.73
2022-09-27T12:52:25.198Z,15.27
2022-09-27T12:55:26.280Z,15.48
2022-09-27T12:58:14.609Z,15.95
2022-09-27T13:00:51.692Z,16.20
2022-09-27T13:03:40.799Z,16.10
2022-09-27T13:06:36.302Z,17.10
2022-09-27T13:09:26.594Z,15.82
2022-09-27T13:12:10.962Z,15.43
2022-09-27T13:17:43.294Z,16.83
2022-09-27T13:20:34.370Z,17.50
2022-09-27T13:23:19.709Z,16.17
2022-09-27T13:25:56.287Z,17.75
2022-09-27T13:28:58.167Z,18.20
2022-09-27T13:31:59.809Z,16.88
2022-09-27T13:34:53.815Z,20.17
2022-09-27T13:37:45.376Z,20.20
2022-09-27T13:40:16.090Z,19.90
2022-09-27T13:43:10.676Z,21.02
2022-09-27T13:46:05.620Z,19.67
2022-09-27T13:49:06.137Z,21.08
2022-09-27T13:52:02.788Z,19.60
2022-09-27T13:54:38.995Z,20.08
2022-09-27T13:57:41.078Z,21.23
2022-09-27T14:00:24.982Z,20.23
2022-09-27T14:03:54.079Z,22.02
2022-09-27T14:06:28.946Z,23.35
2022-09-27T14:09:06.203Z,21.95
2022-09-27T14:11:39.228Z,22.15
2022-09-27T14:14:12.829Z,21.90
2022-09-27T14:16:48.105Z,20.00
2022-09-27T14:19:19.685Z,19.52
2022-09-27T14:22:06.320Z,19.55
2022-09-27T14:24:38.504Z,17.25
2022-09-27T14:27:29.863Z,15.73
2022-09-27T14:30:16.778Z,12.30
2022-09-27T14:32:53.849Z,14.85
2022-09-27T14:35:51.340Z,13.30
2022-09-27T14:38:38.552Z,15.40
2022-09-27T14:41:15.865Z,12.23
2022-09-27T14:43:45.468Z,12.05
2022-09-27T14:46:30.157Z,14.15
2022-09-27T14:48:57.884Z,12.63
2022-09-27T14:51:32.761Z,12.52
2022-09-27T14:54:05.473Z,14.02
2022-09-27T14:56:37.135Z,13.27
2022-09-27T14:59:14.096Z,14.50
2022-09-27T15:01:51.634Z,18.58
2022-09-27T15:04:24.048Z,17.23
2022-09-27T15:06:51.565Z,15.55
2022-09-27T15:09:19.407Z,18.67
2022-09-27T15:11:54.357Z,22.25
2022-09-27T15:14:22.377Z,19.30
2022-09-27T15:16:52.113Z,19.50
2022-09-27T15:19:27.727Z,19.85
2022-09-27T15:21:55.447Z,19.25
2022-09-27T15:24:47.188Z,18.23
2022-09-27T15:27:21.433Z,19.65
2022-09-27T15:29:58.626Z,21.38
2022-09-27T15:32:28.007Z,20.77
2022-09-27T15:34:56.564Z,20.65
2022-09-27T15:37:27.593Z,20.23
2022-09-27T15:39:54.295Z,21.50
2022-09-27T15:42:21.781Z,23.00
2022-09-27T15:44:52.360Z,24.27
2022-09-27T15:47:40.320Z,21.80
2022-09-27T15:50:16.432Z,22.13
2022-09-27T15:52:47.102Z,22.10
2022-09-27T15:55:19.266Z,23.38
2022-09-27T15:57:51.065Z,24.40
2022-09-27T16:00:20.627Z,22.98
2022-09-27T16:02:47.664Z,19.73
2022-09-27T16:05:14.416Z,18.50
2022-09-27T16:07:41.030Z,17.92
2022-09-27T16:10:18.644Z,16.55
2022-09-27T16:12:45.659Z,17.90
2022-09-27T16:15:13.986Z,18.40
2022-09-27T16:17:42.674Z,20.00
2022-09-27T16:20:19.859Z,19.27
2022-09-27T16:22:46.633Z,18.00
2022-09-27T16:25:13.397Z,18.15
2022-09-27T16:27:40.567Z,20.50
2022-09-27T16:30:08.230Z,17.92
2022-09-27T16:32:39.961Z,17.05
2022-09-27T16:35:06.827Z,20.27
2022-09-27T16:37:34.407Z,20.52
2022-09-27T16:40:01.386Z,22.30
2022-09-27T16:42:28.033Z,19.73
2022-09-27T16:44:54.899Z,16.73
2022-09-27T16:47:22.016Z,16.17
2022-09-27T16:50:07.182Z,17.95
2022-09-27T16:52:34.505Z,20.00
2022-09-27T16:55:01.316Z,17.23
2022-09-27T16:57:33.434Z,15.68
2022-09-27T17:00:04.743Z,18.20
2022-09-27T17:02:32.491Z,15.10
2022-09-27T17:04:59.111Z,18.08
2022-09-27T17:07:25.746Z,13.60
2022-09-27T17:09:52.355Z,15.13
2022-09-27T17:12:19.518Z,16.45
2022-09-27T17:14:46.321Z,15.63
2022-09-27T17:17:12.943Z,16.92
2022-09-27T17:19:39.601Z,16.73
2022-09-27T17:22:09.104Z,15.00
2022-09-27T17:24:36.193Z,17.15
2022-09-27T17:27:03.188Z,20.08
2022-09-27T17:29:30.877Z,16.45
2022-09-27T17:31:58.010Z,16.35
2022-09-27T17:34:25.512Z,21.08
2022-09-27T17:36:52.166Z,19.17
2022-09-27T17:39:21.220Z,18.40
2022-09-27T17:41:51.387Z,21.38
2022-09-27T17:44:18.744Z,17.83
2022-09-27T17:46:46.356Z,18.35
2022-09-27T17:49:32.415Z,21.77
2022-09-27T17:51:59.225Z,19.55
2022-09-27T17:54:28.058Z,20.05
2022-09-27T17:56:56.295Z,20.15
2022-09-27T17:59:23.081Z,19.90
2022-09-27T18:01:49.889Z,20.08
2022-09-27T18:04:19.573Z,20.13
2022-09-27T18:06:47.460Z,21.35
2022-09-27T18:09:16.225Z,20.85
2022-09-27T18:11:44.051Z,21.08
2022-09-27T18:14:11.007Z,20.00
2022-09-27T18:16:42.754Z,21.77
2022-09-27T18:19:12.790Z,19.80
2022-09-27T18:21:39.614Z,22.55
2022-09-27T18:24:06.993Z,21.35
2022-09-27T18:26:36.497Z,19.90
2022-09-27T18:29:06.292Z,23.73
2022-09-27T18:31:33.423Z,20.02
2022-09-27T18:34:00.281Z,23.55
2022-09-27T18:36:27.460Z,20.55
2022-09-27T18:38:56.653Z,20.33
2022-09-27T18:41:25.876Z,20.25
2022-09-27T18:43:57.790Z,20.73
2022-09-27T18:46:36.530Z,20.27
2022-09-27T18:49:06.355Z,20.73
2022-09-27T18:51:36.129Z,23.83
2022-09-27T18:54:05.765Z,21.88
2022-09-27T18:56:38.936Z,22.02
2022-09-27T18:59:08.451Z,21.83
2022-09-27T19:01:41.385Z,25.02
2022-09-27T19:04:09.396Z,24.40
2022-09-27T19:06:37.686Z,25.33
2022-09-27T19:09:05.407Z,23.98
2022-09-27T19:11:33.816Z,26.58
2022-09-27T19:14:01.148Z,21.33
2022-09-27T19:16:29.433Z,22.38
2022-09-27T19:18:56.618Z,22.80
2022-09-27T19:21:26.076Z,25.60
2022-09-27T19:23:53.264Z,23.30
2022-09-27T19:26:22.710Z,21.80
2022-09-27T19:28:49.969Z,25.35
2022-09-27T19:31:23.013Z,28.80
2022-09-27T19:33:50.212Z,26.77
2022-09-27T19:36:20.012Z,23.20
2022-09-27T19:38:48.144Z,22.38
2022-09-27T19:41:16.242Z,21.95
2022-09-27T19:43:47.268Z,23.83
2022-09-27T19:46:17.418Z,27.48
2022-09-27T19:48:45.664Z,22.63
2022-09-27T19:51:24.049Z,25.00
2022-09-27T19:53:52.072Z,21.67
2022-09-27T19:56:19.232Z,21.90
2022-09-27T19:58:45.989Z,22.95
2022-09-27T20:01:12.650Z,19.85
2022-09-27T20:03:41.683Z,20.92
2022-09-27T20:06:11.684Z,23.30
2022-09-27T20:08:38.686Z,19.13
2022-09-27T20:11:08.513Z,21.05
2022-09-27T20:13:36.346Z,19.35
2022-09-27T20:16:30.874Z,17.73
2022-09-27T20:18:59.603Z,18.40
2022-09-27T20:21:32.329Z,17.70
2022-09-27T20:24:11.251Z,17.65
2022-09-27T20:26:38.225Z,18.02
2022-09-27T20:29:06.610Z,17.50
2022-09-27T20:32:02.900Z,17.98
2022-09-27T20:34:29.272Z,16.05
2022-09-27T20:36:55.884Z,18.35
2022-09-27T20:39:23.549Z,20.58
2022-09-27T20:41:50.766Z,22.02
2022-09-27T20:44:19.993Z,22.20
2022-09-27T20:46:48.018Z,21.88
2022-09-27T20:49:17.464Z,22.15
2022-09-27T20:51:48.177Z,23.73
2022-09-27T20:54:15.026Z,23.20
2022-09-27T20:56:44.052Z,23.83
2022-09-27T20:59:19.122Z,28.25
2022-09-27T21:01:48.692Z,22.90
2022-09-27T21:04:16.995Z,23.63
2022-09-27T21:06:44.397Z,23.70
2022-09-27T21:09:18.250Z,26.27
2022-09-27T21:11:46.828Z,23.83
2022-09-27T21:14:13.709Z,25.05
2022-09-27T21:16:40.495Z,26.30
2022-09-27T21:19:07.117Z,22.40
2022-09-27T21:21:33.751Z,22.15
2022-09-27T21:24:02.289Z,24.50
2022-09-27T21:26:31.695Z,24.35
2022-09-27T21:29:01.331Z,26.08
2022-09-27T21:31:31.687Z,27.20
2022-09-27T21:34:00.385Z,26.38
2022-09-27T21:36:29.893Z,25.63
2022-09-27T21:38:56.995Z,21.92
2022-09-27T21:41:24.057Z,29.23
2022-09-27T21:43:51.230Z,28.33
2022-09-27T21:46:20.452Z,22.08
2022-09-27T21:48:48.986Z,25.55
2022-09-27T21:51:20.987Z,20.30
2022-09-27T21:53:55.464Z,24.00
2022-09-27T21:56:24.716Z,28.33
2022-09-27T21:58:51.328Z,25.90
2022-09-27T22:01:21.793Z,28.45
2022-09-27T22:03:49.419Z,29.08
2022-09-27T22:06:21.155Z,27.05
2022-09-27T22:08:49.353Z,21.52
2022-09-27T22:11:24.582Z,28.30
2022-09-27T22:13:51.462Z,24.73
2022-09-27T22:16:20.073Z,22.08
2022-09-27T22:18:49.600Z,29.25
2022-09-27T22:21:28.783Z,23.60
2022-09-27T22:23:58.060Z,25.67
2022-09-27T22:26:27.056Z,27.35
2022-09-27T22:28:54.360Z,23.92
2022-09-27T22:31:21.873Z,24.30
2022-09-27T22:33:57.125Z,24.42
2022-09-27T22:36:24.526Z,30.15
2022-09-27T22:38:52.749Z,22.80
2022-09-27T22:41:20.245Z,24.35
2022-09-27T22:43:47.587Z,26.05
2022-09-27T22:46:14.740Z,19.70
2022-09-27T22:48:42.171Z,19.00
2022-09-27T22:51:09.221Z,20.92
2022-09-27T22:53:35.901Z,18.52
2022-09-27T22:56:06.837Z,23.45
2022-09-27T22:58:35.105Z,18.65
2022-09-27T23:01:14.753Z,20.67
2022-09-27T23:03:41.743Z,19.13
2022-09-27T23:06:08.820Z,20.40
2022-09-27T23:08:37.078Z,20.95
2022-09-27T23:11:09.749Z,19.38
2022-09-27T23:13:40.241Z,17.27
2022-09-27T23:16:09.970Z,17.73
2022-09-27T23:18:37.193Z,17.33
2022-09-27T23:21:06.923Z,18.35
2022-09-27T23:23:44.818Z,18.92
2022-09-27T23:26:14.003Z,17.15
2022-09-27T23:28:40.654Z,18.15
2022-09-27T23:31:09.879Z,17.73
2022-09-27T23:33:38.504Z,20.17
2022-09-27T23:36:08.629Z,17.58
2022-09-27T23:38:36.198Z,17.92
2022-09-27T23:41:03.000Z,27.25
2022-09-27T23:43:29.582Z,17.77
2022-09-27T23:45:57.240Z,21.83
2022-09-27T23:48:27.867Z,18.67
2022-09-27T23:50:54.598Z,17.88
2022-09-27T23:53:22.248Z,21.25
2022-09-27T23:56:01.916Z,21.02
2022-09-27T23:58:32.184Z,21.27
